Time;durP1;ratioP1;P1;durP2;ratioP2;P2;SDS_P1;SDS_P2;PMS_P1;PMS_P2;Temp;Humidity;BMP_temperature;BMP_pressure;BME280_temperature;BME280_humidity;BME280_pressure;Samples;Min_cycle;Max_cycle;Signal;HPM_P1;HPM_P2
2022/05/31 00:00:56;;;;;;;;;3.67;3.00;;;;;16.82;38.25;100707.47;5099783;27;45378;-67
2022/05/31 00:03:22;;;;;;;;;3.00;3.00;;;;;17.14;38.46;100751.66;5099320;27;45373;-67
2022/05/31 00:06:05;;;;;;;;;7.67;4.00;;;;;16.74;38.46;100699.69;5114142;27;45555;-67
2022/05/31 00:08:32;;;;;;;;;5.00;3.00;;;;;16.98;38.62;100745.00;5102259;27;46279;-67
2022/05/31 00:11:20;;;;;;;;;4.00;4.00;;;;;17.05;38.22;100757.19;5100149;27;45438;-66
2022/05/31 00:13:49;;;;;;;;;4.33;4.33;;;;;17.04;38.81;100760.75;5103510;27;45499;-68
2022/05/31 00:16:15;;;;;;;;;6.00;4.67;;;;;16.99;38.65;100762.59;5101068;27;45451;-68
2022/05/31 00:18:41;;;;;;;;;4.67;4.67;;;;;16.86;38.80;100738.25;5099275;27;45985;-68
2022/05/31 00:21:11;;;;;;;;;6.00;5.00;;;;;16.95;38.87;100760.06;5099211;27;45454;-67
2022/05/31 00:23:52;;;;;;;;;4.00;4.00;;;;;16.98;38.84;100750.31;5099390;27;45493;-67
2022/05/31 00:26:18;;;;;;;;;7.33;3.67;;;;;17.00;38.97;100756.44;5107116;27;45461;-68
2022/05/31 00:28:57;;;;;;;;;7.67;5.00;;;;;17.00;38.89;100746.72;5101776;27;46607;-67
2022/05/31 00:31:25;;;;;;;;;3.00;3.00;;;;;17.02;39.07;100752.84;5099862;27;45655;-67
2022/05/31 00:33:51;;;;;;;;;3.00;3.00;;;;;16.22;39.47;100622.47;5100676;27;45348;-67
2022/05/31 00:36:17;;;;;;;;;5.00;3.67;;;;;16.98;39.05;100752.94;5099981;27;45486;-67
2022/05/31 00:38:43;;;;;;;;;3.00;3.00;;;;;16.68;38.95;100690.16;5097980;27;45662;-68
2022/05/31 00:41:23;;;;;;;;;3.00;3.00;;;;;17.06;38.91;100748.31;5098011;27;45411;-67
2022/05/31 00:43:52;;;;;;;;;4.00;4.00;;;;;17.08;38.82;100763.25;5101295;27;45475;-67
2022/05/31 00:46:21;;;;;;;;;3.00;2.00;;;;;16.86;39.08;100719.72;5112455;27;45567;-67
2022/05/31 00:48:55;;;;;;;;;3.00;3.00;;;;;17.05;39.21;100762.47;5118085;27;45476;-67
2022/05/31 00:51:23;;;;;;;;;2.00;2.00;;;;;16.98;38.97;100756.47;5117851;27;45405;-66
2022/05/31 00:53:54;;;;;;;;;2.00;2.00;;;;;16.98;39.34;100756.47;5104051;27;45499;-69
2022/05/31 00:56:29;;;;;;;;;2.00;2.00;;;;;16.87;39.39;100732.03;5118436;27;45514;-68
2022/05/31 00:59:07;;;;;;;;;2.33;2.33;;;;;16.95;39.42;100751.25;5117023;27;45565;-68
2022/05/31 01:01:36;;;;;;;;;3.00;3.00;;;;;16.83;39.36;100746.25;5118149;27;45404;-68
2022/05/31 01:04:03;;;;;;;;;1.67;1.67;;;;;16.61;39.47;100698.22;5118361;27;45428;-67
2022/05/31 01:06:29;;;;;;;;;3.00;3.00;;;;;16.94;39.67;100747.75;5118658;27;45566;-68
2022/05/31 01:08:57;;;;;;;;;2.00;2.00;;;;;16.87;39.31;100730.28;5117924;27;45459;-67
2022/05/31 01:11:27;;;;;;;;;3.00;3.00;;;;;17.01;39.79;100747.56;5118100;27;45394;-67
2022/05/31 01:13:55;;;;;;;;;2.00;2.00;;;;;16.83;39.24;100718.03;5117745;27;45474;-67
2022/05/31 01:16:21;;;;;;;;;4.00;3.00;;;;;17.03;39.03;100743.97;5117910;27;45446;-67
2022/05/31 01:18:47;;;;;;;;;3.67;1.67;;;;;17.02;39.30;100747.53;5117788;27;46076;-67
2022/05/31 01:21:13;;;;;;;;;2.67;2.33;;;;;16.96;39.53;100745.03;5118155;27;45456;-67
2022/05/31 01:24:13;;;;;;;;;2.67;2.67;;;;;16.89;39.38;100736.38;5118688;27;45401;-67
2022/05/31 01:26:53;;;;;;;;;2.33;2.33;;;;;16.91;39.29;100742.50;5108779;27;45270;-67
2022/05/31 01:29:27;;;;;;;;;2.00;2.00;;;;;16.93;39.24;100743.34;5117659;27;45447;-67
2022/05/31 01:32:04;;;;;;;;;4.33;2.00;;;;;16.92;39.26;100744.25;5118067;27;45377;-68
2022/05/31 01:34:37;;;;;;;;;2.00;2.00;;;;;16.82;39.22;100732.13;5116676;27;45617;-68
2022/05/31 01:37:05;;;;;;;;;3.00;2.00;;;;;16.79;39.00;100734.00;5118452;27;45336;-68
2022/05/31 01:39:57;;;;;;;;;1.00;1.00;;;;;16.88;39.04;100741.72;5116959;27;45453;-69
2022/05/31 01:42:34;;;;;;;;;1.00;1.00;;;;;16.90;39.15;100743.41;5104697;27;45628;-68
2022/05/31 01:45:08;;;;;;;;;2.67;2.00;;;;;16.27;39.11;100635.59;5117686;27;45259;-68
2022/05/31 01:47:35;;;;;;;;;1.00;1.00;;;;;16.87;39.01;100732.03;5117621;27;45443;-68
2022/05/31 01:50:01;;;;;;;;;2.00;2.00;;;;;16.77;39.12;100715.47;5117447;27;45506;-68
2022/05/31 01:52:32;;;;;;;;;2.33;2.00;;;;;17.02;38.75;100741.38;5117760;27;45498;-68
2022/05/31 01:54:59;;;;;;;;;3.33;2.00;;;;;17.05;39.02;100736.00;5113737;27;45478;-69
2022/05/31 01:57:27;;;;;;;;;2.67;2.00;;;;;16.93;39.25;100731.91;5117733;27;45369;-68
2022/05/31 02:00:00;;;;;;;;;2.67;2.00;;;;;16.50;39.20;100661.50;5117335;27;45598;-68
2022/05/31 02:02:26;;;;;;;;;2.00;2.00;;;;;17.00;39.22;100736.13;5117201;27;45280;-67
2022/05/31 02:04:52;;;;;;;;;3.00;1.00;;;;;16.88;38.96;100715.25;5103405;27;45484;-67
2022/05/31 02:07:22;;;;;;;;;3.00;2.00;;;;;17.04;39.13;100740.44;5117709;27;45335;-67
2022/05/31 02:09:50;;;;;;;;;3.33;2.00;;;;;17.04;38.97;100748.38;5118751;27;45332;-68
2022/05/31 02:12:19;;;;;;;;;4.00;2.00;;;;;16.92;39.21;100724.88;5111882;27;45392;-67
2022/05/31 02:14:45;;;;;;;;;2.00;2.00;;;;;17.08;39.19;100755.31;5116578;27;45510;-68
2022/05/31 02:17:11;;;;;;;;;2.00;2.00;;;;;16.70;39.12;100685.69;5121377;27;45430;-67
2022/05/31 02:19:38;;;;;;;;;2.00;2.00;;;;;16.85;39.21;100707.41;5121004;27;46098;-67
2022/05/31 02:22:12;;;;;;;;;2.00;2.00;;;;;17.17;39.34;100748.94;5120813;27;45530;-67
2022/05/31 02:24:38;;;;;;;;;2.00;2.00;;;;;17.03;39.34;100735.19;5121094;27;45492;-67
2022/05/31 02:27:05;;;;;;;;;2.00;2.00;;;;;17.00;39.68;100736.13;5120806;27;45589;-67
2022/05/31 02:29:35;;;;;;;;;3.00;3.00;;;;;16.80;39.56;100702.25;5109219;27;45490;-67
2022/05/31 02:32:02;;;;;;;;;2.00;2.00;;;;;17.07;39.25;100744.78;5117506;27;45416;-68
2022/05/31 02:34:31;;;;;;;;;2.00;2.00;;;;;16.95;39.38;100725.66;5120690;27;45760;-68
2022/05/31 02:36:57;;;;;;;;;2.00;2.00;;;;;16.91;39.05;100718.69;5120459;27;45543;-67
2022/05/31 02:39:24;;;;;;;;;2.00;2.00;;;;;17.13;38.99;100749.91;5120216;27;45491;-68
2022/05/31 02:41:50;;;;;;;;;2.00;2.00;;;;;17.16;38.96;100747.22;5120340;27;45560;-68
2022/05/31 02:44:17;;;;;;;;;2.67;2.67;;;;;16.95;38.49;100717.72;5120348;27;45291;-67
2022/05/31 02:46:44;;;;;;;;;3.00;2.00;;;;;17.07;39.04;100727.13;5121104;27;45501;-67
2022/05/31 02:49:10;;;;;;;;;3.00;3.00;;;;;17.22;38.53;100747.03;5120543;27;45542;-66
2022/05/31 02:51:38;;;;;;;;;2.33;2.33;;;;;17.21;38.89;100747.09;5120376;27;45378;-68
2022/05/31 02:54:15;;;;;;;;;2.00;2.00;;;;;17.20;39.10;100751.50;5120353;27;45499;-68
2022/05/31 02:56:41;;;;;;;;;2.00;2.00;;;;;17.13;38.60;100731.38;5120525;27;45448;-68
2022/05/31 02:59:07;;;;;;;;;1.33;1.33;;;;;16.88;38.70;100694.09;5120427;27;46007;-68
2022/05/31 03:01:35;;;;;;;;;2.00;1.33;;;;;17.18;38.70;100742.75;5120480;27;45452;-68
2022/05/31 03:04:01;;;;;;;;;2.00;2.00;;;;;17.14;38.81;100738.44;5106179;27;45550;-68
2022/05/31 03:06:27;;;;;;;;;2.00;2.00;;;;;17.17;38.99;100741.00;5119845;27;45589;-68
2022/05/31 03:08:53;;;;;;;;;1.00;1.00;;;;;16.89;38.82;100695.81;5120138;27;45401;-68
2022/05/31 03:11:53;;;;;;;;;3.00;2.00;;;;;17.14;38.56;100730.50;5119951;27;45515;-68
2022/05/31 03:14:24;;;;;;;;;3.00;2.00;;;;;17.07;38.94;100728.91;5120036;27;45510;-67
2022/05/31 03:17:09;;;;;;;;;3.33;2.00;;;;;16.95;38.88;100719.50;5136122;27;45498;-68
2022/05/31 03:19:40;;;;;;;;;0.33;0.00;;;;;16.99;38.73;100737.06;5119506;27;45425;-68
2022/05/31 03:22:12;;;;;;;;;2.33;2.33;;;;;17.03;38.62;100743.97;5118895;27;45435;-67
2022/05/31 03:24:55;;;;;;;;;2.00;2.00;;;;;16.82;39.03;100704.81;5119826;27;45510;-67
2022/05/31 03:27:21;;;;;;;;;3.00;2.00;;;;;17.13;38.67;100748.16;5120360;27;45558;-67
2022/05/31 03:29:50;;;;;;;;;2.00;2.00;;;;;17.19;38.62;100746.25;5119920;27;45563;-67
2022/05/31 03:32:16;;;;;;;;;3.00;3.00;;;;;16.64;39.41;100659.38;5120336;27;45375;-67
2022/05/31 03:34:42;;;;;;;;;4.00;4.00;;;;;17.17;39.75;100746.28;5119588;27;45681;-68
2022/05/31 03:37:09;;;;;;;;;3.67;2.00;;;;;17.07;39.43;100724.47;5118852;27;45487;-67
2022/05/31 03:39:34;;;;;;;;;3.00;3.00;;;;;17.05;38.76;100726.28;5119573;27;45485;-67
2022/05/31 03:42:01;;;;;;;;;2.00;2.00;;;;;16.83;39.03;100704.78;5119392;27;45498;-67
2022/05/31 03:44:26;;;;;;;;;3.67;3.67;;;;;16.98;38.63;100739.72;5119603;27;45503;-67
2022/05/31 03:46:52;;;;;;;;;4.33;4.33;;;;;16.90;39.17;100732.84;5119692;27;45314;-67
2022/05/31 03:49:18;;;;;;;;;3.00;3.00;;;;;16.68;39.17;100706.00;5119476;27;46161;-67
2022/05/31 03:51:44;;;;;;;;;1.67;1.67;;;;;16.84;38.59;100727.69;5119194;27;45382;-67
2022/05/31 03:54:10;;;;;;;;;5.00;3.00;;;;;16.98;39.09;100743.22;5120056;27;45308;-67
2022/05/31 03:56:36;;;;;;;;;3.00;3.00;;;;;16.71;38.92;100707.72;5120015;27;45361;-68
2022/05/31 03:59:03;;;;;;;;;2.33;2.33;;;;;16.79;39.21;100711.06;5118895;27;45455;-68
2022/05/31 04:01:28;;;;;;;;;4.67;3.00;;;;;17.01;39.01;100745.78;5119104;27;45418;-68
2022/05/31 04:03:54;;;;;;;;;5.33;5.00;;;;;17.04;38.75;100745.75;5106162;27;45549;-67
2022/05/31 04:06:20;;;;;;;;;3.00;3.00;;;;;16.98;39.19;100737.06;5119371;27;45498;-67
2022/05/31 04:08:46;;;;;;;;;3.00;3.00;;;;;17.05;38.56;100746.59;5119484;27;45478;-67
2022/05/31 04:11:15;;;;;;;;;4.00;4.00;;;;;16.71;38.38;100686.56;5118542;27;45525;-69
2022/05/31 04:13:41;;;;;;;;;3.00;3.00;;;;;16.99;38.89;100720.28;5119264;27;45449;-68
2022/05/31 04:16:10;;;;;;;;;4.00;4.00;;;;;17.03;38.71;100732.53;5119152;27;45381;-69
2022/05/31 04:18:37;;;;;;;;;4.00;3.00;;;;;17.01;38.30;100726.41;5118968;27;46151;-69
2022/05/31 04:21:05;;;;;;;;;4.00;3.33;;;;;17.05;38.48;100726.28;5118741;27;45442;-69
2022/05/31 04:26:16;;;;;;;;;6.33;3.00;;;;;16.93;38.69;100716.88;5119062;27;45560;-69
2022/05/31 04:28:42;;;;;;;;;5.00;4.00;;;;;17.04;39.10;100729.00;5118670;27;45350;-68
2022/05/31 04:31:08;;;;;;;;;6.67;5.33;;;;;16.95;39.64;100725.66;5118797;27;45290;-69
2022/05/31 04:33:35;;;;;;;;;4.00;4.00;;;;;17.01;39.38;100727.28;5118718;27;45452;-68
2022/05/31 04:36:05;;;;;;;;;6.33;4.67;;;;;16.79;39.77;100702.25;5118652;27;45480;-66
2022/05/31 04:38:31;;;;;;;;;4.33;4.33;;;;;16.65;40.18;100674.31;5118212;27;46665;-68
2022/05/31 04:40:57;;;;;;;;;6.00;4.00;;;;;16.88;40.44;100710.84;5117983;27;45522;-68
2022/05/31 04:43:23;;;;;;;;;3.00;3.00;;;;;17.07;40.85;100732.41;5106937;27;45466;-69
2022/05/31 04:45:49;;;;;;;;;5.00;4.00;;;;;17.13;40.45;100739.31;5099565;27;45479;-69
2022/05/31 04:48:18;;;;;;;;;4.00;4.00;;;;;17.08;40.28;100722.69;5100169;27;45341;-69
2022/05/31 04:50:45;;;;;;;;;7.33;5.00;;;;;17.25;40.30;100744.34;5105189;27;45417;-68
2022/05/31 04:53:11;;;;;;;;;4.00;4.00;;;;;17.24;40.68;100736.44;5112196;27;45442;-69
2022/05/31 04:55:38;;;;;;;;;7.00;4.33;;;;;17.13;40.52;100702.28;5103939;27;46015;-69
2022/05/31 04:58:10;;;;;;;;;7.33;4.00;;;;;17.42;40.37;100741.25;5100053;27;46093;-68
2022/05/31 05:00:36;;;;;;;;;5.67;5.67;;;;;17.29;41.18;100724.78;5101429;27;45325;-68
2022/05/31 05:03:01;;;;;;;;;5.00;5.00;;;;;17.42;41.00;100754.50;5103611;27;45274;-67
2022/05/31 05:05:27;;;;;;;;;5.00;5.00;;;;;17.40;40.87;100744.84;5106680;27;45477;-67
2022/05/31 05:07:53;;;;;;;;;5.00;4.67;;;;;17.38;40.90;100740.44;5099148;27;46887;-69
2022/05/31 05:10:19;;;;;;;;;7.67;5.33;;;;;17.41;41.29;100752.72;5098383;27;45499;-68
2022/05/31 05:12:46;;;;;;;;;7.33;5.00;;;;;17.35;41.64;100745.84;5098227;27;45283;-69
2022/05/31 05:15:12;;;;;;;;;4.67;4.67;;;;;17.24;41.85;100739.94;5105335;27;45401;-68
2022/05/31 05:17:38;;;;;;;;;5.33;5.33;;;;;17.36;41.53;100759.94;5111258;27;45922;-68
2022/05/31 05:20:05;;;;;;;;;6.00;5.00;;;;;17.17;41.07;100725.97;5114704;27;45474;-68
2022/05/31 05:22:31;;;;;;;;;8.33;6.33;;;;;17.46;40.58;100764.06;5106810;27;45985;-68
2022/05/31 05:24:56;;;;;;;;;9.67;6.33;;;;;17.52;40.62;100766.56;5102012;27;45505;-69
2022/05/31 05:27:27;;;;;;;;;9.00;7.33;;;;;17.53;41.16;100764.78;5102140;27;45208;-69
2022/05/31 05:32:51;;;;;;;;;7.33;5.67;;;;;17.45;40.37;100753.53;5106743;27;45432;-69
2022/05/31 05:35:17;;;;;;;;;6.67;5.33;;;;;17.68;40.45;100761.75;5108895;27;45378;-69
2022/05/31 05:37:45;;;;;;;;;3.33;3.00;;;;;17.72;40.25;100773.97;5110383;27;46269;-68
2022/05/31 05:40:12;;;;;;;;;6.67;6.00;;;;;17.38;40.70;100708.69;5102010;27;45500;-70
2022/05/31 05:42:41;;;;;;;;;7.00;5.00;;;;;17.77;40.16;100766.78;5100979;27;45589;-67
2022/05/31 05:45:10;;;;;;;;;6.00;5.67;;;;;17.54;40.07;100724.16;5101843;27;45735;-68
2022/05/31 05:47:35;;;;;;;;;5.67;5.67;;;;;17.79;41.17;100772.88;5108354;27;45484;-68
2022/05/31 05:50:01;;;;;;;;;5.00;5.00;;;;;17.68;40.39;100759.09;5096997;27;45463;-68
2022/05/31 05:52:27;;;;;;;;;8.00;5.00;;;;;17.56;40.73;100731.16;5101776;27;45516;-69
2022/05/31 05:54:53;;;;;;;;;3.00;3.00;;;;;17.57;40.41;100726.72;5100960;27;45521;-67
2022/05/31 05:57:18;;;;;;;;;5.33;4.00;;;;;17.93;40.02;100783.16;5114939;27;45421;-67
2022/05/31 05:59:44;;;;;;;;;6.33;4.00;;;;;17.97;39.65;100776.84;5120073;27;45410;-67
2022/05/31 06:02:54;;;;;;;;;3.33;3.33;;;;;17.99;39.98;100784.78;5119137;27;45534;-67
2022/05/31 06:05:25;;;;;;;;;5.33;4.00;;;;;18.01;40.39;100793.56;5118108;27;45362;-68
2022/05/31 06:08:12;;;;;;;;;4.67;4.00;;;;;17.96;40.46;100792.78;5111340;27;45493;-67
2022/05/31 06:10:44;;;;;;;;;4.00;4.00;;;;;18.03;39.90;100802.31;5118656;27;45403;-67
2022/05/31 07:58:54;;;;;;;;;7.67;6.00;;;;;17.15;40.66;100808.97;5061188;27;45417;-71
2022/05/31 08:01:22;;;;;;;;;5.00;4.67;;;;;17.48;40.21;100832.88;5049917;28;45641;-71
2022/05/31 08:03:49;;;;;;;;;7.33;6.00;;;;;17.65;39.36;100822.72;5046738;28;47160;-69
2022/05/31 08:06:19;;;;;;;;;5.33;3.33;;;;;17.83;39.21;100816.13;5051967;28;45513;-71
2022/05/31 08:08:44;;;;;;;;;5.00;3.67;;;;;18.11;39.22;100821.53;5052963;28;46614;-70
2022/05/31 08:11:13;;;;;;;;;3.67;3.67;;;;;18.30;38.80;100813.94;5052624;28;45518;-70
2022/05/31 08:13:45;;;;;;;;;4.00;4.00;;;;;18.51;38.85;100820.41;5052449;28;45815;-70
2022/05/31 08:16:13;;;;;;;;;6.00;6.00;;;;;18.41;37.82;100776.47;5052813;28;45581;-70
2022/05/31 08:18:42;;;;;;;;;10.00;5.00;;;;;18.80;37.51;100816.03;5052351;28;46144;-70
2022/05/31 08:21:14;;;;;;;;;4.00;4.00;;;;;18.90;37.05;100819.25;5052658;28;45532;-71
2022/05/31 08:23:41;;;;;;;;;7.00;4.33;;;;;19.06;37.04;100815.22;5045539;28;45361;-71
2022/05/31 08:26:11;;;;;;;;;6.33;5.00;;;;;19.13;36.71;100814.09;5046844;28;45885;-70
2022/05/31 08:28:37;;;;;;;;;5.00;5.00;;;;;18.89;36.55;100749.41;5052904;28;45783;-69
2022/05/31 08:31:07;;;;;;;;;5.00;4.00;;;;;19.06;36.68;100759.47;5052464;28;45403;-70
2022/05/31 08:33:33;;;;;;;;;6.67;5.00;;;;;19.44;36.62;100823.72;5052640;28;45413;-68
2022/05/31 08:36:06;;;;;;;;;5.00;5.00;;;;;18.92;36.48;100722.75;5052596;28;45361;-70
2022/05/31 08:38:32;;;;;;;;;6.00;6.00;;;;;19.59;36.19;100819.66;5051982;28;45480;-71
2022/05/31 08:41:06;;;;;;;;;4.00;4.00;;;;;19.53;36.07;100772.94;5051800;28;45797;-70
2022/05/31 08:43:48;;;;;;;;;7.00;5.33;;;;;19.72;36.22;100798.88;5048912;28;45531;-68
2022/05/31 08:46:22;;;;;;;;;4.33;4.33;;;;;19.91;35.63;100818.59;5032620;28;45398;-70
2022/05/31 08:49:15;;;;;;;;;5.00;5.00;;;;;19.99;35.38;100810.34;5032049;28;45499;-70
2022/05/31 08:52:05;;;;;;;;;5.67;4.00;;;;;20.07;35.68;100818.91;5031983;28;45421;-70
2022/05/31 08:57:47;;;;;;;;;4.00;4.00;;;;;20.11;36.71;100776.19;5053835;28;45375;-71
2022/05/31 09:00:20;;;;;;;;;5.33;4.00;;;;;20.25;35.53;100796.94;5052939;28;45577;-71
2022/05/31 09:02:55;;;;;;;;;5.67;4.00;;;;;20.45;35.68;100819.28;5052526;28;45569;-71
2022/05/31 09:05:29;;;;;;;;;4.00;4.00;;;;;20.41;36.21;100791.06;5063861;28;45398;-72
2022/05/31 09:08:06;;;;;;;;;4.00;4.00;;;;;20.67;35.82;100809.59;5072734;28;45746;-69
2022/05/31 09:10:47;;;;;;;;;3.67;3.67;;;;;20.64;34.67;100793.72;5058645;28;46429;-72
2022/05/31 09:13:38;;;;;;;;;14.00;12.67;;;;;20.74;34.49;100815.56;5057911;28;45524;-71
2022/05/31 09:16:18;;;;;;;;;27.67;25.33;;;;;20.60;34.84;100810.75;5058568;28;45728;-71
2022/05/31 09:18:50;;;;;;;;;98.00;82.75;;;;;20.62;37.01;100814.22;5058603;28;45482;-71
2022/05/31 09:21:38;;;;;;;;;59.75;46.25;;;;;20.67;35.05;100814.91;5058094;28;46173;-71
2022/05/31 09:24:07;;;;;;;;;39.00;32.33;;;;;20.61;35.64;100787.66;5058338;28;45263;-73
2022/05/31 09:27:04;;;;;;;;;21.67;18.33;;;;;20.62;36.06;100776.97;5058579;28;45433;-72
2022/05/31 09:29:50;;;;;;;;;18.00;18.00;;;;;20.82;35.50;100784.16;5058675;28;45256;-70
2022/05/31 09:32:31;;;;;;;;;15.33;10.67;;;;;21.10;33.88;100809.69;5044588;28;47161;-68
2022/05/31 09:35:21;;;;;;;;;5.33;5.00;;;;;21.08;32.43;100812.41;5049281;28;45349;-68
2022/05/31 09:38:20;;;;;;;;;4.33;4.33;;;;;21.01;32.61;100812.72;5052045;28;45550;-71
2022/05/31 09:40:52;;;;;;;;;5.00;3.00;;;;;20.93;33.79;100819.22;5056592;28;45756;-69
2022/05/31 09:43:32;;;;;;;;;5.00;5.00;;;;;20.95;32.58;100814.69;5057494;28;45475;-71
2022/05/31 09:46:28;;;;;;;;;5.00;5.00;;;;;20.45;32.80;100753.63;5039379;28;45532;-71
2022/05/31 09:48:57;;;;;;;;;5.00;5.00;;;;;20.89;32.65;100803.44;5053624;28;45302;-70
2022/05/31 09:51:51;;;;;;;;;3.00;3.00;;;;;21.01;32.55;100802.94;5052342;28;45287;-71
2022/05/31 09:57:13;;;;;;;;;4.33;4.33;;;;;21.16;32.48;100806.75;5051928;28;45387;-71
2022/05/31 09:59:51;;;;;;;;;5.33;4.00;;;;;21.21;31.50;100798.56;5053549;28;45463;-69
2022/05/31 10:02:29;;;;;;;;;2.00;2.00;;;;;21.26;30.22;100804.56;5054327;28;45470;-71
2022/05/31 10:05:13;;;;;;;;;3.33;3.00;;;;;21.25;30.23;100805.53;5048783;28;45712;-71
2022/05/31 10:07:40;;;;;;;;;3.00;3.00;;;;;20.94;30.54;100753.53;5055748;28;46041;-68
2022/05/31 10:10:45;;;;;;;;;4.00;4.00;;;;;21.20;30.74;100804.84;5040651;28;45530;-71
2022/05/31 10:13:43;;;;;;;;;6.33;4.33;;;;;20.97;31.31;100764.03;5040440;28;45409;-70
2022/05/31 10:16:13;;;;;;;;;6.00;4.00;;;;;21.16;30.66;100804.94;5025523;28;46066;-69
2022/05/31 10:18:52;;;;;;;;;3.33;3.33;;;;;20.97;31.68;100788.00;5038062;28;45485;-68
2022/05/31 10:21:40;;;;;;;;;5.33;5.33;;;;;21.01;31.92;100813.56;5049713;28;45579;-69
2022/05/31 10:24:22;;;;;;;;;6.00;4.00;;;;;20.99;31.73;100810.09;5020429;28;45541;-67
2022/05/31 10:27:13;;;;;;;;;5.00;5.00;;;;;21.00;32.08;100795.00;5044072;28;45704;-69
2022/05/31 10:29:47;;;;;;;;;4.00;3.67;;;;;20.98;32.31;100784.44;5037447;28;45443;-68
2022/05/31 10:32:29;;;;;;;;;3.00;3.00;;;;;21.15;31.91;100789.91;5037578;28;45545;-70
2022/05/31 10:35:08;;;;;;;;;3.33;3.33;;;;;21.04;32.06;100765.50;5040588;28;45410;-69
2022/05/31 10:37:35;;;;;;;;;3.00;3.00;;;;;21.14;32.00;100784.63;5025363;28;46587;-72
2022/05/31 10:40:07;;;;;;;;;5.00;3.00;;;;;20.69;31.67;100713.69;5036937;28;45289;-72
2022/05/31 10:42:37;;;;;;;;;4.33;4.33;;;;;21.16;30.95;100791.63;5039250;28;45743;-71
2022/05/31 10:45:07;;;;;;;;;5.00;5.00;;;;;20.90;30.99;100738.59;5037221;28;45529;-71
2022/05/31 10:47:33;;;;;;;;;5.33;3.67;;;;;21.13;30.81;100782.91;5046048;28;45426;-69
2022/05/31 10:50:04;;;;;;;;;4.67;4.00;;;;;21.22;30.91;100789.69;5042862;28;45379;-70
2022/05/31 10:52:48;;;;;;;;;5.00;5.00;;;;;21.28;30.75;100803.59;5037183;28;45402;-70
2022/05/31 10:55:23;;;;;;;;;4.33;4.00;;;;;21.37;30.63;100794.34;5037475;28;45471;-69
2022/05/31 10:57:52;;;;;;;;;4.00;4.00;;;;;21.45;30.37;100796.72;5018583;28;47157;-69
2022/05/31 11:00:29;;;;;;;;;4.00;4.00;;;;;21.45;30.56;100788.72;5036817;28;45802;-69
2022/05/31 11:02:55;;;;;;;;;6.33;5.00;;;;;21.68;31.28;100806.41;5040425;28;45245;-68
2022/05/31 11:05:50;;;;;;;;;4.33;3.33;;;;;21.48;31.03;100746.84;5040503;28;45347;-68
2022/05/31 11:11:43;;;;;;;;;6.00;6.00;;;;;21.91;30.64;100802.75;5050858;28;45477;-67
2022/05/31 11:14:27;;;;;;;;;8.00;6.00;;;;;21.96;30.24;100801.59;5052057;28;45288;-69
2022/05/31 11:17:20;;;;;;;;;4.00;4.00;;;;;21.87;30.06;100791.34;5031957;28;47173;-71
2022/05/31 11:20:09;;;;;;;;;4.00;4.00;;;;;22.02;30.40;100800.47;5052977;28;45347;-72
2022/05/31 11:23:29;;;;;;;;;6.33;4.33;;;;;22.18;30.32;100805.97;5045950;28;45521;-69
2022/05/31 11:26:20;;;;;;;;;7.33;5.00;;;;;22.19;29.66;100792.56;4955867;28;45714;-70
2022/05/31 11:29:13;;;;;;;;;6.00;4.00;;;;;22.37;29.27;100800.69;5047541;28;45430;-71
2022/05/31 11:31:54;;;;;;;;;3.00;3.00;;;;;22.25;28.82;100778.09;5048896;28;45564;-69
2022/05/31 11:34:51;;;;;;;;;6.00;4.67;;;;;22.49;29.68;100799.25;5048780;28;45501;-69
2022/05/31 11:37:26;;;;;;;;;3.00;3.00;;;;;22.43;29.21;100793.28;5034836;28;45483;-71
2022/05/31 11:40:16;;;;;;;;;6.33;5.00;;;;;22.39;29.59;100807.69;5043870;28;45365;-69
2022/05/31 11:42:51;;;;;;;;;4.00;4.00;;;;;22.36;29.93;100812.31;5035798;28;45452;-70
2022/05/31 11:45:27;;;;;;;;;5.00;5.00;;;;;22.29;29.69;100803.72;5040910;28;45380;-70
2022/05/31 11:48:28;;;;;;;;;4.33;4.33;;;;;22.30;29.89;100810.78;5039691;28;45375;-70
2022/05/31 11:51:06;;;;;;;;;6.67;6.67;;;;;22.27;29.67;100810.91;5036111;28;45458;-71
2022/05/31 11:53:37;;;;;;;;;6.00;5.33;;;;;22.24;28.80;100811.06;5037134;28;45363;-71
2022/05/31 11:56:38;;;;;;;;;5.00;5.00;;;;;22.20;29.28;100812.09;5035872;28;45512;-69
2022/05/31 11:59:19;;;;;;;;;4.67;4.00;;;;;22.17;29.81;100806.91;5021177;28;45562;-70
2022/05/31 12:02:10;;;;;;;;;20.67;16.00;;;;;22.16;29.58;100815.84;5047598;28;45656;-73
2022/05/31 12:04:39;;;;;;;;;8.33;6.67;;;;;22.14;29.57;100807.94;5020647;28;45516;-70
2022/05/31 12:07:15;;;;;;;;;6.67;6.00;;;;;22.13;30.51;100814.19;5045708;28;45608;-70
2022/05/31 12:09:54;;;;;;;;;7.00;6.00;;;;;21.92;30.40;100775.13;5046515;28;45586;-71
2022/05/31 12:12:30;;;;;;;;;6.33;5.00;;;;;22.16;31.00;100810.50;5053353;28;45503;-69
2022/05/31 12:15:10;;;;;;;;;6.67;5.00;;;;;22.25;30.14;100811.94;5050503;28;45493;-71
2022/05/31 12:18:18;;;;;;;;;4.00;4.00;;;;;22.43;30.36;100793.28;5022755;28;45543;-70
2022/05/31 12:21:17;;;;;;;;;3.33;3.00;;;;;22.67;30.43;100798.41;5042587;28;46058;-68
2022/05/31 12:24:00;;;;;;;;;2.67;2.67;;;;;22.56;30.25;100768.66;5047210;28;45460;-69
2022/05/31 12:26:31;;;;;;;;;3.33;3.33;;;;;22.75;30.70;100801.56;5047795;28;45501;-69
2022/05/31 12:29:11;;;;;;;;;3.00;3.00;;;;;22.76;30.45;100791.78;5044623;28;45690;-70
2022/05/31 12:31:42;;;;;;;;;3.00;3.00;;;;;22.72;30.85;100787.50;5047041;28;45569;-69
2022/05/31 12:34:37;;;;;;;;;3.33;3.33;;;;;22.78;30.33;100784.53;5052464;28;45973;-68
2022/05/31 12:37:08;;;;;;;;;5.00;3.33;;;;;22.88;30.86;100792.97;5044307;28;46484;-68
2022/05/31 12:39:36;;;;;;;;;2.33;2.00;;;;;22.88;29.57;100801.84;5029377;28;45445;-68
2022/05/31 12:42:13;;;;;;;;;4.33;3.67;;;;;22.71;29.79;100777.75;5045042;28;45589;-68
2022/05/31 12:44:47;;;;;;;;;4.00;4.00;;;;;22.88;29.86;100804.53;5048705;28;45367;-69
2022/05/31 12:47:28;;;;;;;;;5.00;3.00;;;;;22.96;29.76;100799.66;5054416;28;46115;-68
2022/05/31 12:50:04;;;;;;;;;2.67;2.67;;;;;23.02;29.32;100785.19;5050009;28;45469;-70
2022/05/31 12:55:36;;;;;;;;;3.00;2.00;;;;;23.26;28.38;100794.66;5046693;28;45484;-69
2022/05/31 12:58:26;;;;;;;;;1.00;1.00;;;;;23.27;28.71;100796.38;5050193;28;45559;-67
2022/05/31 13:01:27;;;;;;;;;1.33;1.33;;;;;23.27;28.63;100796.38;5048231;28;45363;-68
2022/05/31 13:04:07;;;;;;;;;2.00;2.00;;;;;23.27;28.51;100792.84;5048910;28;45434;-68
2022/05/31 13:07:04;;;;;;;;;1.33;1.33;;;;;23.25;28.58;100792.94;5050836;28;45565;-69
2022/05/31 13:09:40;;;;;;;;;2.33;2.00;;;;;22.99;28.54;100750.59;5045240;28;45391;-68
2022/05/31 13:20:56;;;;;;;;;1.67;1.67;;;;;23.10;28.14;100769.63;5056407;28;45805;-67
2022/05/31 13:23:25;;;;;;;;;1.00;1.00;;;;;23.15;28.61;100769.41;5056638;28;46189;-67
2022/05/31 13:26:03;;;;;;;;;4.00;3.67;;;;;22.98;29.70;100751.53;5056660;28;45596;-70
2022/05/31 13:28:34;;;;;;;;;2.00;2.00;;;;;23.17;28.87;100784.44;5054622;28;45477;-67
2022/05/31 13:31:09;;;;;;;;;3.00;1.33;;;;;23.23;29.03;100777.91;5051379;28;45968;-68
2022/05/31 13:33:37;;;;;;;;;2.00;2.00;;;;;23.36;29.32;100783.50;5055787;28;45466;-67
2022/05/31 13:36:23;;;;;;;;;1.00;1.00;;;;;23.33;28.94;100754.28;5055953;28;45528;-69
2022/05/31 13:38:51;;;;;;;;;2.00;2.00;;;;;23.63;28.89;100784.78;5052836;28;45397;-69
2022/05/31 13:41:19;;;;;;;;;2.00;2.00;;;;;23.22;27.59;100704.03;5055156;28;45500;-70
2022/05/31 13:43:50;;;;;;;;;2.67;2.00;;;;;23.76;27.72;100776.16;5056113;28;45475;-70
2022/05/31 13:46:39;;;;;;;;;12.67;12.00;;;;;23.71;28.03;100771.00;5055727;28;45537;-69
2022/05/31 13:49:26;;;;;;;;;11.00;7.33;;;;;23.68;27.82;100768.47;5036182;28;45732;-69
2022/05/31 13:51:59;;;;;;;;;4.00;4.00;;;;;23.63;28.51;100782.09;5045599;28;46246;-68
2022/05/31 13:54:28;;;;;;;;;3.33;3.33;;;;;23.31;28.33;100732.97;5049982;28;45532;-70
2022/05/31 13:56:59;;;;;;;;;2.67;2.67;;;;;23.22;28.36;100726.28;5050101;28;45501;-70
2022/05/31 13:59:40;;;;;;;;;2.00;2.00;;;;;23.61;28.31;100775.97;5040244;28;45837;-68
2022/05/31 14:02:53;;;;;;;;;1.00;1.00;;;;;23.73;27.66;100763.78;5046153;28;45594;-69
2022/05/31 14:05:34;;;;;;;;;2.00;2.00;;;;;23.87;28.61;100765.72;5034545;28;46057;-67
2022/05/31 14:08:01;;;;;;;;;4.33;4.00;;;;;23.91;27.89;100760.13;5037366;28;45460;-72